KNYG

Quantico MCAF / Turner Field Airport

Quantico, Virginia, USA
METAR KNYG 181556Z 31009G16KT 10SM FEW050 13/M01 A3047 RMK AO2 SLP318 T01281006 $
Observed Flight Rules
Oct-18 @ 15:56 UTC (40 minutes ago) Visual Flight Rules
Wind Visibility Clouds
310° at 9 knots
 Gusting to 16 knots
10 miles
  • Few at 5,000' AGL
Temperatures Readings
Current 13°C / 55°F
Dewpoint -1°C / 30°F
Humidity 38%
Altimeter 30.47" Hg
Pressure 1031.8 hPa
Elevation 4
METAR KNYG 181556Z 31009G16KT 10SM FEW050 13/M01 A3047 RMK AO2 SLP318 T01281006 $
Observed Flight Rules
Oct-18 @ 15:56 UTC
(40 minutes ago)
VFR
Wind Visibility
310° at 9 knots
 Gusting to 16 knots
10 miles
Clouds
  • Few at 5,000' AGL
Temperature Dewpoint
13°C / 55°F -1°C / 30°F
Humidity Altimeter Pressure
38% 30.47" Hg 1031.8 hPa